Time;durP1;ratioP1;P1;durP2;ratioP2;P2;SDS_P1;SDS_P2;PMS_P1;PMS_P2;Temp;Humidity;BMP_temperature;BMP_pressure;BME280_temperature;BME280_humidity;BME280_pressure;Samples;Min_cycle;Max_cycle;Signal;HPM_P1;HPM_P2
2022/06/14 00:01:27;;;;;;;25.97;5.57;;;15.60;22.90;;;;;;4986373;28;20902;-70
2022/06/14 00:03:53;;;;;;;29.07;5.73;;;15.60;24.00;;;;;;4988556;28;20465;-70
2022/06/14 00:06:23;;;;;;;27.87;6.20;;;15.50;23.20;;;;;;4987968;28;20212;-70
2022/06/14 00:08:51;;;;;;;28.47;5.20;;;15.50;23.20;;;;;;4988620;28;20469;-70
2022/06/14 00:11:22;;;;;;;27.00;6.00;;;15.60;22.90;;;;;;4987256;28;20465;-70
2022/06/14 00:13:51;;;;;;;32.27;6.13;;;15.60;22.90;;;;;;4988209;28;20449;-70
2022/06/14 00:16:20;;;;;;;28.63;5.60;;;15.50;22.90;;;;;;4987638;28;21204;-70
2022/06/14 00:18:47;;;;;;;26.53;5.50;;;15.50;23.10;;;;;;4988430;28;20464;-70
2022/06/14 00:21:14;;;;;;;26.77;5.67;;;15.50;23.20;;;;;;4986716;28;20464;-70
2022/06/14 00:23:41;;;;;;;29.30;5.80;;;15.50;23.50;;;;;;4987764;28;20473;-70
2022/06/14 00:26:09;;;;;;;31.13;6.13;;;15.40;23.80;;;;;;4987632;28;20508;-70
2022/06/14 00:28:36;;;;;;;31.77;5.63;;;15.30;23.80;;;;;;4988417;28;20480;-70
2022/06/14 00:31:07;;;;;;;28.57;6.03;;;15.30;23.70;;;;;;4989806;28;20476;-70
2022/06/14 00:33:34;;;;;;;27.57;5.37;;;15.30;24.00;;;;;;4992201;28;20472;-70
2022/06/14 00:36:02;;;;;;;25.33;5.00;;;15.20;24.10;;;;;;4991594;28;21004;-70
2022/06/14 00:38:30;;;;;;;30.70;6.20;;;15.20;24.20;;;;;;4991780;28;20471;-70
2022/06/14 00:40:59;;;;;;;29.53;6.00;;;15.20;24.90;;;;;;4991132;28;20719;-70
2022/06/14 00:43:28;;;;;;;28.63;6.47;;;15.10;24.80;;;;;;4989927;28;20488;-70
2022/06/14 00:46:21;;;;;;;25.60;5.27;;;15.10;24.70;;;;;;4991232;28;20480;-70
2022/06/14 00:48:59;;;;;;;28.63;6.10;;;15.00;24.90;;;;;;4991386;28;20457;-70
2022/06/14 00:51:30;;;;;;;26.83;5.80;;;15.00;24.80;;;;;;4991224;28;20449;-70
2022/06/14 00:54:03;;;;;;;27.60;6.30;;;15.00;25.60;;;;;;4989554;28;20465;-70
2022/06/14 00:56:38;;;;;;;29.10;6.83;;;15.00;25.10;;;;;;4991245;28;21016;-70
2022/06/14 00:59:11;;;;;;;28.10;6.60;;;14.90;25.20;;;;;;4991289;28;20451;-70
2022/06/14 01:01:42;;;;;;;30.57;6.33;;;14.90;25.30;;;;;;4990581;28;20477;-70
2022/06/14 01:04:13;;;;;;;30.10;7.47;;;14.90;25.40;;;;;;4987170;28;20461;-70
2022/06/14 01:06:49;;;;;;;30.30;6.40;;;14.90;25.50;;;;;;4991187;28;20899;-70
2022/06/14 01:09:20;;;;;;;26.87;6.90;;;14.90;25.80;;;;;;4990959;28;20847;-70
2022/06/14 01:11:50;;;;;;;27.70;6.70;;;14.80;25.70;;;;;;4990450;28;20453;-70
2022/06/14 01:14:20;;;;;;;28.90;6.70;;;14.80;25.90;;;;;;4989317;28;20460;-70
2022/06/14 01:16:48;;;;;;;27.70;7.57;;;14.80;25.90;;;;;;4990224;28;20486;-70
2022/06/14 01:19:20;;;;;;;27.90;6.97;;;14.70;26.30;;;;;;4990879;28;20452;-70
2022/06/14 01:22:23;;;;;;;29.20;7.67;;;14.70;26.70;;;;;;4990289;28;20473;-70
2022/06/14 01:24:54;;;;;;;29.50;7.60;;;14.70;27.00;;;;;;4989822;28;20468;-75
2022/06/14 01:27:23;;;;;;;29.20;7.17;;;14.70;26.50;;;;;;4990186;28;20476;-70
2022/06/14 01:29:55;;;;;;;33.07;6.93;;;14.70;26.80;;;;;;4990425;28;21127;-70
2022/06/14 01:32:24;;;;;;;30.57;7.93;;;14.70;27.00;;;;;;4989816;28;20473;-70
2022/06/14 01:34:54;;;;;;;30.30;8.00;;;14.60;27.00;;;;;;4989336;28;20476;-70
2022/06/14 01:37:23;;;;;;;29.47;8.30;;;14.60;27.10;;;;;;4990549;28;20723;-70
2022/06/14 01:39:50;;;;;;;27.70;7.77;;;14.60;27.40;;;;;;4990405;28;20464;-70
2022/06/14 01:42:24;;;;;;;29.40;7.93;;;14.60;27.40;;;;;;4989935;28;21024;-70
2022/06/14 01:44:59;;;;;;;27.80;7.37;;;14.60;27.50;;;;;;4988674;28;20460;-70
2022/06/14 01:47:34;;;;;;;27.43;6.80;;;14.50;27.60;;;;;;4990129;28;20492;-70
2022/06/14 01:53:10;;;;;;;31.53;7.70;;;14.30;28.40;;;;;;4990334;28;21231;-70
2022/06/14 01:55:42;;;;;;;27.93;6.43;;;14.30;28.20;;;;;;4988607;28;20479;-70
2022/06/14 01:58:20;;;;;;;27.90;7.00;;;14.30;28.40;;;;;;4990118;28;20485;-70
2022/06/14 02:01:05;;;;;;;30.37;7.77;;;14.30;28.60;;;;;;4988980;28;20847;-70
2022/06/14 02:06:35;;;;;;;35.60;7.90;;;14.20;29.10;;;;;;4988064;28;20851;-70
2022/06/14 02:09:08;;;;;;;27.87;6.20;;;14.20;28.60;;;;;;4988586;28;20487;-70
2022/06/14 02:11:36;;;;;;;28.30;6.50;;;14.10;28.50;;;;;;4989900;28;20482;-70
2022/06/14 02:14:10;;;;;;;27.70;6.37;;;14.10;28.50;;;;;;4989436;28;20464;-70
2022/06/14 02:16:42;;;;;;;28.77;6.53;;;14.10;28.70;;;;;;4988516;28;20488;-70
2022/06/14 02:19:13;;;;;;;26.83;7.03;;;14.10;28.90;;;;;;4989789;28;20678;-70
2022/06/14 02:21:43;;;;;;;31.53;6.60;;;14.10;28.70;;;;;;4989648;28;20441;-70
2022/06/14 02:24:17;;;;;;;27.40;7.23;;;14.10;28.80;;;;;;4989756;28;20965;-70
2022/06/14 02:26:48;;;;;;;30.43;7.20;;;14.10;29.20;;;;;;4987671;28;20480;-70
2022/06/14 02:29:19;;;;;;;31.50;7.40;;;14.10;28.80;;;;;;4988908;28;20468;-70
2022/06/14 02:31:53;;;;;;;28.90;7.53;;;14.10;28.90;;;;;;4988763;28;20483;-70
2022/06/14 02:34:23;;;;;;;29.50;7.80;;;14.10;28.80;;;;;;4989892;28;20712;-70
2022/06/14 02:36:54;;;;;;;31.07;8.33;;;14.10;28.60;;;;;;4975088;28;20857;-70
2022/06/14 02:39:26;;;;;;;30.97;8.27;;;14.00;28.80;;;;;;4969518;28;20817;-70
2022/06/14 02:42:00;;;;;;;32.10;10.20;;;13.90;29.10;;;;;;4969534;28;20549;-70
2022/06/14 02:44:31;;;;;;;30.70;8.17;;;13.90;29.40;;;;;;4970008;28;20458;-70
2022/06/14 02:47:04;;;;;;;31.63;7.77;;;13.90;29.40;;;;;;4968915;28;20491;-70
2022/06/14 02:49:37;;;;;;;29.07;7.50;;;13.90;29.60;;;;;;4969387;28;20473;-70
2022/06/14 02:55:31;;;;;;;37.20;7.40;;;13.80;30.10;;;;;;4968620;28;20429;-70
2022/06/14 02:58:04;;;;;;;28.87;7.00;;;13.80;30.20;;;;;;4969298;28;20481;-70
2022/06/14 03:00:37;;;;;;;29.90;7.77;;;13.70;30.50;;;;;;4968493;28;20468;-70
2022/06/14 03:03:08;;;;;;;31.93;8.00;;;13.70;30.60;;;;;;4969711;28;20485;-70
2022/06/14 03:05:38;;;;;;;29.37;7.07;;;13.80;30.20;;;;;;4968990;28;20977;-70
2022/06/14 03:08:12;;;;;;;33.60;9.20;;;13.70;30.50;;;;;;4968938;28;20998;-70
2022/06/14 03:10:46;;;;;;;36.10;9.23;;;13.70;30.40;;;;;;4969333;28;20919;-70
2022/06/14 03:13:23;;;;;;;32.70;7.17;;;13.70;30.00;;;;;;4968984;28;20453;-70
2022/06/14 03:15:57;;;;;;;33.23;7.50;;;13.70;30.10;;;;;;4969141;28;20438;-70
2022/06/14 03:18:31;;;;;;;33.93;8.03;;;13.60;30.40;;;;;;4968851;28;20484;-70
2022/06/14 03:21:06;;;;;;;31.47;8.27;;;13.60;30.60;;;;;;4969444;28;20464;-70
2022/06/14 03:23:41;;;;;;;30.00;8.17;;;13.60;30.50;;;;;;4968246;28;20469;-70
2022/06/14 03:26:17;;;;;;;34.67;8.13;;;13.60;30.30;;;;;;4968579;28;20464;-70
2022/06/14 03:28:50;;;;;;;34.33;8.97;;;13.60;30.20;;;;;;4968551;28;20457;-70
2022/06/14 03:31:23;;;;;;;38.17;9.13;;;13.60;30.30;;;;;;4968249;28;20480;-64
2022/06/14 03:33:57;;;;;;;35.47;10.17;;;13.60;30.40;;;;;;4968733;28;20469;-64
2022/06/14 03:36:24;;;;;;;30.87;7.63;;;13.60;30.30;;;;;;4967612;28;20582;-64
2022/06/14 03:38:54;;;;;;;29.93;7.90;;;13.60;30.30;;;;;;4967469;28;20492;-64
2022/06/14 03:41:25;;;;;;;35.23;8.47;;;13.60;30.40;;;;;;4968158;28;20564;-63
2022/06/14 03:43:54;;;;;;;31.50;8.07;;;13.60;30.40;;;;;;4968292;28;20534;-63
2022/06/14 03:46:30;;;;;;;32.10;9.50;;;13.60;30.10;;;;;;4967315;28;20890;-63
2022/06/14 03:49:02;;;;;;;29.90;8.03;;;13.60;30.40;;;;;;4968461;28;20483;-63
2022/06/14 03:51:39;;;;;;;30.87;8.80;;;13.70;30.30;;;;;;4968491;28;20442;-63
2022/06/14 03:54:18;;;;;;;32.00;9.57;;;13.60;30.20;;;;;;4967870;28;20450;-63
2022/06/14 04:00:31;;;;;;;37.23;9.50;;;13.70;30.20;;;;;;4967044;28;20468;-69
2022/06/14 04:03:08;;;;;;;33.13;8.73;;;13.80;29.80;;;;;;4967604;28;20588;-70
2022/06/14 04:05:48;;;;;;;38.40;9.10;;;13.90;29.90;;;;;;4970732;28;20457;-70
2022/06/14 04:08:24;;;;;;;31.27;7.80;;;13.90;29.90;;;;;;4972470;28;20499;-69
2022/06/14 04:14:31;;;;;;;32.73;8.20;;;14.00;29.90;;;;;;4991173;28;20425;-70
2022/06/14 04:17:09;;;;;;;36.13;8.17;;;14.00;29.30;;;;;;4990441;28;20488;-69
2022/06/14 04:19:50;;;;;;;35.00;7.20;;;14.10;29.30;;;;;;4992452;28;20441;-69
2022/06/14 04:22:22;;;;;;;38.10;8.40;;;14.10;29.30;;;;;;4991767;28;20917;-70
2022/06/14 04:24:54;;;;;;;33.30;7.83;;;14.20;29.00;;;;;;4991483;28;20838;-69
2022/06/14 04:27:27;;;;;;;34.03;7.03;;;14.20;29.20;;;;;;4991783;28;20476;-69
2022/06/14 04:30:01;;;;;;;33.00;7.90;;;14.30;29.00;;;;;;4992056;28;20544;-69
2022/06/14 04:32:40;;;;;;;33.30;6.53;;;14.70;30.30;;;;;;4991337;28;21015;-69
2022/06/14 04:35:14;;;;;;;36.13;7.03;;;15.80;28.30;;;;;;4991012;28;20463;-70
2022/06/14 04:37:45;;;;;;;32.70;7.50;;;17.10;24.80;;;;;;4991616;28;20491;-69
2022/06/14 04:40:15;;;;;;;34.40;6.80;;;18.10;20.90;;;;;;4990917;28;20472;-69
2022/06/14 04:42:46;;;;;;;35.60;6.93;;;19.00;18.90;;;;;;4991587;28;20507;-70
2022/06/14 04:45:18;;;;;;;34.23;6.60;;;19.80;17.50;;;;;;4990953;28;20467;-70
2022/06/14 04:47:51;;;;;;;33.60;6.13;;;20.70;15.40;;;;;;4991424;28;20871;-70
2022/06/14 04:50:22;;;;;;;33.87;6.40;;;21.50;13.90;;;;;;4991094;28;21140;-70
2022/06/14 04:52:53;;;;;;;33.30;6.47;;;22.20;12.20;;;;;;4990917;28;20441;-70
2022/06/14 04:55:24;;;;;;;32.47;6.63;;;22.80;11.20;;;;;;4991212;28;20460;-70
2022/06/14 04:57:56;;;;;;;36.37;6.13;;;23.10;9.40;;;;;;4990916;28;20480;-70
2022/06/14 05:00:28;;;;;;;34.43;6.40;;;23.40;9.40;;;;;;4990395;28;20484;-70
2022/06/14 05:03:01;;;;;;;35.17;6.50;;;24.10;8.50;;;;;;4989930;28;20531;-70
2022/06/14 05:05:36;;;;;;;31.77;5.80;;;24.80;7.00;;;;;;4991470;28;20835;-70
2022/06/14 05:08:08;;;;;;;33.73;6.53;;;25.60;6.10;;;;;;4991162;28;20479;-70
2022/06/14 05:10:40;;;;;;;36.53;6.60;;;26.20;4.80;;;;;;4990751;28;20837;-70
2022/06/14 05:13:15;;;;;;;33.43;6.20;;;26.90;3.80;;;;;;4990335;28;20975;-70
2022/06/14 05:15:46;;;;;;;33.40;5.67;;;27.60;3.00;;;;;;4990222;28;20490;-71
2022/06/14 05:18:18;;;;;;;32.90;7.20;;;28.20;2.50;;;;;;4989945;28;21044;-71
2022/06/14 05:20:50;;;;;;;32.60;5.20;;;28.70;1.50;;;;;;4988489;28;20456;-71
2022/06/14 05:23:22;;;;;;;35.53;6.70;;;29.30;1.00;;;;;;4988204;28;20482;-71
2022/06/14 05:25:58;;;;;;;30.80;5.17;;;29.80;1.00;;;;;;4991016;28;20925;-71
2022/06/14 05:28:36;;;;;;;32.00;6.07;;;30.40;1.00;;;;;;4990116;28;20490;-71
2022/06/14 05:31:13;;;;;;;31.50;5.80;;;30.90;1.00;;;;;;4986742;28;20503;-71
2022/06/14 05:33:48;;;;;;;32.50;6.27;;;31.40;1.00;;;;;;4971619;28;20464;-70
2022/06/14 05:36:19;;;;;;;36.53;6.43;;;31.90;1.00;;;;;;4970414;28;20454;-70
2022/06/14 05:38:52;;;;;;;31.43;5.37;;;32.50;1.00;;;;;;4970838;28;20919;-70
2022/06/14 05:41:25;;;;;;;31.73;6.43;;;33.10;1.00;;;;;;4978566;28;20487;-70
2022/06/14 05:43:56;;;;;;;31.57;5.00;;;33.60;1.00;;;;;;4989834;28;20480;-70
2022/06/14 05:46:27;;;;;;;30.23;5.13;;;33.90;1.00;;;;;;4990657;28;20461;-70
2022/06/14 05:49:00;;;;;;;30.53;5.30;;;34.40;1.00;;;;;;4989792;28;20724;-70
2022/06/14 05:51:31;;;;;;;30.87;5.37;;;35.10;1.00;;;;;;4988968;28;20467;-70
2022/06/14 05:54:02;;;;;;;28.80;5.30;;;35.60;1.00;;;;;;4989624;28;20441;-71
2022/06/14 05:56:33;;;;;;;28.80;4.40;;;36.20;1.00;;;;;;4990201;28;20481;-70
2022/06/14 05:59:05;;;;;;;26.60;4.50;;;36.70;1.00;;;;;;4989851;28;20473;-71
2022/06/14 06:01:37;;;;;;;30.43;4.87;;;37.30;1.00;;;;;;4988589;28;20496;-71
2022/06/14 06:04:09;;;;;;;27.17;4.60;;;37.80;1.00;;;;;;4989799;28;20469;-71
2022/06/14 06:06:40;;;;;;;27.63;5.00;;;38.30;1.00;;;;;;4990061;28;20484;-71
2022/06/14 06:09:12;;;;;;;26.80;4.00;;;38.80;1.00;;;;;;4989705;28;20484;-71
2022/06/14 06:11:45;;;;;;;28.70;4.90;;;39.20;1.00;;;;;;4988565;28;20615;-71
2022/06/14 06:14:16;;;;;;;28.03;5.10;;;39.70;1.00;;;;;;4989516;28;20448;-71
2022/06/14 06:16:47;;;;;;;27.10;4.70;;;40.30;1.00;;;;;;4989814;28;20640;-71
2022/06/14 06:19:19;;;;;;;27.27;5.40;;;40.60;1.00;;;;;;4990096;28;20522;-71
2022/06/14 06:21:52;;;;;;;29.70;4.80;;;40.00;1.00;;;;;;4989812;28;20564;-71
2022/06/14 06:24:25;;;;;;;26.93;4.70;;;39.60;1.00;;;;;;4987792;28;20567;-71
2022/06/14 06:26:58;;;;;;;26.90;5.33;;;39.40;1.00;;;;;;4988307;28;20826;-71
2022/06/14 06:29:29;;;;;;;26.13;4.47;;;40.40;1.00;;;;;;4989447;28;20452;-71
2022/06/14 06:31:56;;;;;;;26.87;4.93;;;41.20;1.00;;;;;;4988651;28;20549;-71
2022/06/14 06:34:26;;;;;;;27.40;4.60;;;41.80;1.00;;;;;;4988534;28;20469;-71
2022/06/14 06:37:05;;;;;;;25.57;4.57;;;42.30;1.00;;;;;;4988690;28;20535;-71
2022/06/14 06:39:42;;;;;;;28.20;4.87;;;42.90;1.00;;;;;;4989547;28;20448;-71
2022/06/14 06:42:18;;;;;;;27.53;4.27;;;43.00;1.00;;;;;;4989232;28;20475;-71
2022/06/14 06:44:55;;;;;;;27.93;4.00;;;43.50;1.00;;;;;;4989278;28;20692;-71
2022/06/14 06:47:28;;;;;;;28.57;4.37;;;44.20;1.00;;;;;;4988949;28;20479;-71
2022/06/14 06:50:15;;;;;;;26.33;4.63;;;44.30;1.00;;;;;;4989239;28;20551;-71
2022/06/14 06:52:53;;;;;;;25.77;4.40;;;44.30;1.00;;;;;;4988845;28;20456;-71
2022/06/14 06:55:28;;;;;;;28.33;4.77;;;44.60;1.00;;;;;;4987793;28;20437;-71
2022/06/14 06:57:57;;;;;;;26.93;4.93;;;45.30;1.00;;;;;;4989315;28;20479;-71
2022/06/14 07:00:27;;;;;;;25.83;4.37;;;45.70;1.00;;;;;;4988604;28;20456;-71
2022/06/14 07:02:57;;;;;;;27.93;4.40;;;46.00;1.00;;;;;;4989424;28;20457;-71
2022/06/14 07:05:25;;;;;;;25.50;4.67;;;46.30;1.00;;;;;;4988817;28;20888;-71
2022/06/14 07:07:59;;;;;;;24.30;4.30;;;46.70;1.00;;;;;;4987268;28;20942;-71
2022/06/14 07:10:33;;;;;;;24.57;3.90;;;46.80;1.00;;;;;;4988713;28;20461;-71
2022/06/14 07:13:04;;;;;;;24.70;4.17;;;46.80;1.00;;;;;;4988807;28;20510;-71
2022/06/14 07:15:38;;;;;;;24.73;4.43;;;46.40;1.00;;;;;;4988790;28;20457;-71
2022/06/14 07:18:12;;;;;;;23.50;4.23;;;46.00;1.00;;;;;;4987028;28;20485;-71
2022/06/14 07:20:53;;;;;;;23.73;3.63;;;46.20;1.00;;;;;;4988310;28;20518;-71
2022/06/14 07:23:33;;;;;;;24.37;3.57;;;46.90;1.00;;;;;;4988345;28;20449;-72
2022/06/14 07:26:07;;;;;;;27.17;3.67;;;46.40;1.00;;;;;;4989054;28;20444;-71
2022/06/14 07:28:40;;;;;;;25.97;4.37;;;45.90;1.00;;;;;;4987057;28;20858;-71
2022/06/14 07:31:12;;;;;;;25.87;3.93;;;45.30;1.00;;;;;;4987897;28;20560;-71
2022/06/14 07:33:39;;;;;;;25.33;4.13;;;45.30;1.00;;;;;;4988241;28;20460;-71
2022/06/14 07:36:14;;;;;;;25.23;3.53;;;45.80;1.00;;;;;;4988876;28;20460;-71
2022/06/14 07:38:51;;;;;;;24.93;3.67;;;46.10;1.00;;;;;;4987288;28;20460;-71
2022/06/14 07:41:27;;;;;;;41.80;4.80;;;47.10;1.00;;;;;;4986745;28;20918;-71
2022/06/14 07:44:00;;;;;;;24.70;3.40;;;48.50;1.00;;;;;;4987701;28;20468;-71
2022/06/14 07:46:34;;;;;;;23.23;3.53;;;48.60;1.00;;;;;;4988503;28;21079;-71
2022/06/14 07:49:07;;;;;;;24.20;3.57;;;48.20;1.00;;;;;;4987244;28;20476;-71
2022/06/14 07:51:39;;;;;;;23.10;3.50;;;48.20;1.00;;;;;;4988938;28;20445;-71
2022/06/14 07:54:11;;;;;;;23.00;3.27;;;48.60;1.00;;;;;;4988135;28;20942;-71
2022/06/14 07:56:43;;;;;;;23.90;3.90;;;48.70;1.00;;;;;;4988186;28;20487;-71
2022/06/14 07:59:13;;;;;;;22.10;3.17;;;48.50;1.00;;;;;;4986810;28;20471;-71
2022/06/14 08:01:46;;;;;;;23.20;3.70;;;49.40;1.00;;;;;;4986150;28;20828;-71
2022/06/14 08:04:18;;;;;;;24.33;3.17;;;49.50;1.00;;;;;;4988411;28;20825;-71
2022/06/14 08:06:50;;;;;;;22.23;3.03;;;49.20;1.00;;;;;;4988351;28;20877;-71
2022/06/14 08:09:20;;;;;;;22.30;3.10;;;48.90;1.00;;;;;;4988351;28;20460;-71
2022/06/14 08:11:52;;;;;;;26.10;3.23;;;49.40;1.00;;;;;;4986396;28;20473;-71
2022/06/14 08:14:25;;;;;;;23.90;3.20;;;49.40;1.00;;;;;;4988215;28;20452;-71
2022/06/14 08:16:54;;;;;;;23.50;3.60;;;48.80;1.00;;;;;;4987923;28;20538;-71
2022/06/14 08:19:25;;;;;;;22.73;3.60;;;49.00;1.00;;;;;;4988298;28;20460;-71
2022/06/14 08:22:01;;;;;;;21.90;2.97;;;49.40;1.00;;;;;;4986575;28;20468;-71
2022/06/14 08:24:32;;;;;;;23.60;3.33;;;49.50;1.00;;;;;;4987877;28;20464;-71
2022/06/14 08:27:05;;;;;;;24.90;4.00;;;49.80;1.00;;;;;;4988011;28;21024;-72
2022/06/14 08:29:37;;;;;;;22.33;3.03;;;50.40;1.00;;;;;;4988245;28;20464;-71
2022/06/14 08:32:10;;;;;;;23.93;3.40;;;50.10;1.00;;;;;;4986019;28;20507;-71
2022/06/14 08:34:42;;;;;;;22.57;2.73;;;50.60;1.00;;;;;;4988239;28;20453;-72
2022/06/14 08:37:19;;;;;;;22.30;3.37;;;51.50;1.00;;;;;;4987687;28;20507;-71
2022/06/14 08:39:49;;;;;;;21.90;3.30;;;52.10;1.00;;;;;;4987304;28;20460;-71
2022/06/14 08:42:26;;;;;;;20.63;2.67;;;52.80;1.00;;;;;;4986460;28;20984;-71
2022/06/14 08:44:59;;;;;;;20.87;2.70;;;53.80;1.00;;;;;;4987374;28;20469;-71
2022/06/14 08:47:51;;;;;;;23.63;3.10;;;54.40;1.00;;;;;;4987750;28;20476;-71
2022/06/14 08:50:47;;;;;;;20.10;2.43;;;54.10;1.00;;;;;;4989548;28;20452;-71
2022/06/14 08:53:52;;;;;;;20.70;2.87;;;54.60;1.00;;;;;;4990308;28;21151;-71
2022/06/14 08:56:41;;;;;;;22.53;3.03;;;53.90;1.00;;;;;;4991587;28;20546;-71
2022/06/14 08:59:49;;;;;;;22.33;2.70;;;54.00;1.00;;;;;;4991012;28;20468;-71
2022/06/14 09:02:43;;;;;;;24.40;3.00;;;54.10;1.00;;;;;;4990739;28;20478;-72
2022/06/14 09:05:36;;;;;;;21.23;2.70;;;54.90;1.00;;;;;;4948349;28;20570;-72
2022/06/14 09:08:48;;;;;;;21.00;2.70;;;55.80;1.00;;;;;;4991500;28;20868;-71
2022/06/14 09:12:03;;;;;;;19.67;2.60;;;56.10;1.00;;;;;;4990298;28;20514;-72
2022/06/14 09:15:03;;;;;;;20.03;3.07;;;56.10;1.00;;;;;;4982987;28;20464;-71
2022/06/14 09:17:53;;;;;;;21.13;3.10;;;55.80;1.00;;;;;;4990548;28;20575;-71
2022/06/14 09:20:33;;;;;;;22.20;3.33;;;54.50;1.00;;;;;;4990568;28;20968;-71
2022/06/14 09:26:40;;;;;;;21.70;2.73;;;48.40;1.00;;;;;;4970034;28;20472;-71
2022/06/14 09:29:50;;;;;;;24.07;3.00;;;45.40;1.00;;;;;;4970360;28;20457;-71
2022/06/14 09:33:14;;;;;;;25.07;3.13;;;43.50;1.00;;;;;;4970837;28;20469;-71
2022/06/14 09:36:06;;;;;;;23.27;3.30;;;41.50;1.00;;;;;;4984292;28;20535;-71
2022/06/14 09:38:58;;;;;;;24.30;3.47;;;39.50;1.00;;;;;;4990357;28;20456;-71
2022/06/14 09:41:41;;;;;;;25.00;3.60;;;37.90;1.00;;;;;;4990119;28;20484;-71
2022/06/14 09:45:03;;;;;;;26.50;3.60;;;36.70;1.00;;;;;;4990380;28;20536;-71
2022/06/14 09:47:54;;;;;;;26.13;3.53;;;35.70;1.00;;;;;;4971027;28;20482;-71
2022/06/14 09:50:55;;;;;;;28.07;4.67;;;34.60;1.00;;;;;;4970878;28;20843;-71
2022/06/14 09:53:44;;;;;;;26.70;4.20;;;33.30;1.00;;;;;;4971010;28;20873;-70
2022/06/14 09:56:47;;;;;;;27.07;4.20;;;32.50;1.00;;;;;;4980185;28;20464;-70
2022/06/14 09:59:53;;;;;;;32.80;3.50;;;32.00;1.00;;;;;;4990653;28;20445;-71
2022/06/14 10:02:43;;;;;;;28.20;4.30;;;31.60;1.00;;;;;;4969185;28;20536;-70
2022/06/14 10:05:44;;;;;;;28.50;4.03;;;31.20;1.00;;;;;;4989836;28;20488;-70
2022/06/14 10:08:47;;;;;;;27.60;3.77;;;30.70;1.00;;;;;;4967822;28;20509;-70
2022/06/14 10:11:28;;;;;;;28.63;3.83;;;30.10;1.00;;;;;;4967643;28;20523;-70
2022/06/14 10:14:10;;;;;;;28.07;3.40;;;29.90;1.00;;;;;;4970908;28;20441;-70
2022/06/14 10:16:58;;;;;;;26.67;3.83;;;29.70;1.00;;;;;;4976463;28;20484;-70
2022/06/14 10:20:13;;;;;;;27.33;4.00;;;29.60;1.00;;;;;;4990027;28;20472;-70
2022/06/14 10:22:55;;;;;;;28.03;3.37;;;29.30;1.00;;;;;;4947854;29;20534;-71
2022/06/14 10:25:30;;;;;;;28.40;4.20;;;29.20;1.00;;;;;;4983270;28;21000;-70
2022/06/14 10:28:12;;;;;;;27.07;3.70;;;29.10;1.00;;;;;;4987911;28;20974;-70
2022/06/14 10:30:57;;;;;;;27.60;4.40;;;29.00;1.00;;;;;;4989387;28;20468;-70
2022/06/14 10:33:34;;;;;;;27.10;3.67;;;28.70;1.00;;;;;;4989878;28;20556;-70
2022/06/14 10:36:23;;;;;;;27.53;3.83;;;28.30;1.00;;;;;;4989294;28;20489;-70
2022/06/14 10:39:17;;;;;;;27.80;4.40;;;28.00;1.00;;;;;;4987897;28;20460;-70
2022/06/14 10:41:53;;;;;;;27.63;3.50;;;27.80;1.00;;;;;;4989572;28;20464;-70
2022/06/14 10:44:25;;;;;;;27.77;3.80;;;27.60;1.00;;;;;;4989264;28;20448;-70
2022/06/14 10:47:02;;;;;;;28.13;3.53;;;27.50;1.00;;;;;;4989211;28;20481;-71
2022/06/14 10:50:15;;;;;;;28.30;3.73;;;27.50;1.00;;;;;;4969744;28;21033;-71
2022/06/14 10:52:54;;;;;;;27.80;3.70;;;27.50;1.00;;;;;;4959976;28;20461;-72
2022/06/14 10:55:41;;;;;;;27.77;3.67;;;27.30;1.00;;;;;;4969907;28;20447;-71
2022/06/14 10:58:33;;;;;;;27.97;4.10;;;27.20;1.00;;;;;;4975505;28;20511;-71
2022/06/14 11:01:11;;;;;;;27.70;3.47;;;26.80;1.00;;;;;;4988339;28;20469;-71
2022/06/14 11:03:51;;;;;;;27.60;3.97;;;26.50;1.00;;;;;;4989437;28;20444;-71
2022/06/14 11:06:54;;;;;;;30.27;4.10;;;26.30;1.00;;;;;;4988849;28;20678;-71
2022/06/14 11:09:32;;;;;;;30.50;4.97;;;25.90;1.00;;;;;;4987700;28;20467;-71
2022/06/14 11:12:21;;;;;;;28.30;4.00;;;25.80;1.00;;;;;;4987943;28;20456;-71
2022/06/14 11:14:54;;;;;;;27.17;3.60;;;25.90;1.30;;;;;;4988982;28;21008;-71
2022/06/14 11:17:49;;;;;;;27.37;4.10;;;26.00;1.00;;;;;;4988250;28;20472;-71
2022/06/14 11:20:28;;;;;;;27.00;3.73;;;26.00;1.00;;;;;;4988756;28;20491;-71
2022/06/14 11:23:02;;;;;;;29.27;4.80;;;25.90;1.00;;;;;;4988613;28;20997;-71
2022/06/14 11:25:37;;;;;;;29.20;4.87;;;25.70;1.00;;;;;;4988438;28;20798;-71
2022/06/14 11:28:18;;;;;;;29.80;4.20;;;25.70;1.60;;;;;;4988357;28;20476;-71
2022/06/14 11:30:51;;;;;;;28.83;3.97;;;25.80;1.30;;;;;;4987709;28;20475;-70
2022/06/14 11:33:33;;;;;;;28.30;4.60;;;25.70;1.00;;;;;;4988494;28;20961;-71
2022/06/14 11:36:23;;;;;;;28.70;4.43;;;25.70;1.80;;;;;;4988449;28;20456;-70
2022/06/14 11:39:05;;;;;;;29.30;5.50;;;25.60;1.00;;;;;;4983921;28;20457;-70
2022/06/14 11:41:38;;;;;;;28.97;4.43;;;25.70;1.30;;;;;;4988175;28;20487;-71
2022/06/14 11:44:21;;;;;;;31.80;4.43;;;25.70;1.90;;;;;;4987346;28;20839;-71
2022/06/14 11:46:58;;;;;;;32.10;5.50;;;25.80;2.20;;;;;;4987569;28;20495;-70
2022/06/14 11:49:33;;;;;;;30.83;4.47;;;25.80;2.40;;;;;;4988488;28;20449;-71
2022/06/14 11:52:18;;;;;;;29.27;4.50;;;25.80;1.00;;;;;;4987931;28;20460;-71
2022/06/14 11:54:58;;;;;;;30.60;5.93;;;25.70;1.30;;;;;;4986737;28;20875;-71
2022/06/14 11:57:31;;;;;;;28.30;4.30;;;25.60;1.00;;;;;;4987757;28;20989;-71
2022/06/14 12:00:23;;;;;;;30.27;4.50;;;25.50;1.40;;;;;;4988342;28;20448;-71
2022/06/14 12:03:07;;;;;;;28.50;4.67;;;25.30;1.00;;;;;;4987462;28;20461;-70
2022/06/14 12:05:45;;;;;;;29.83;4.47;;;25.10;1.00;;;;;;4986598;28;20489;-71
2022/06/14 12:08:48;;;;;;;28.20;4.03;;;25.00;1.40;;;;;;4987922;28;20574;-71
2022/06/14 12:11:24;;;;;;;31.50;5.17;;;25.10;3.00;;;;;;4988575;28;20804;-70
2022/06/14 12:14:34;;;;;;;27.93;4.73;;;25.10;1.50;;;;;;4988293;28;20449;-71
2022/06/14 12:17:13;;;;;;;33.60;5.10;;;24.90;2.40;;;;;;4986692;28;20555;-70
2022/06/14 12:19:41;;;;;;;31.10;4.73;;;25.00;3.50;;;;;;4987584;28;20980;-71
2022/06/14 12:22:31;;;;;;;29.93;4.50;;;25.10;4.70;;;;;;4987909;28;20464;-70
2022/06/14 12:28:00;;;;;;;29.13;4.20;;;25.10;3.30;;;;;;4991756;28;20463;-70
2022/06/14 12:30:29;;;;;;;28.10;4.50;;;25.20;3.70;;;;;;4991420;28;20437;-70
2022/06/14 12:33:03;;;;;;;30.33;4.93;;;25.20;3.30;;;;;;4991739;28;20844;-70
2022/06/14 12:35:35;;;;;;;31.77;4.90;;;25.20;3.00;;;;;;4991911;28;20885;-71
2022/06/14 12:38:08;;;;;;;29.30;4.33;;;25.20;3.40;;;;;;4990671;28;20523;-71
2022/06/14 12:40:41;;;;;;;28.77;4.53;;;25.30;3.30;;;;;;4991411;28;20467;-70
2022/06/14 12:43:14;;;;;;;30.70;4.37;;;25.30;4.00;;;;;;4991552;28;20466;-71
2022/06/14 12:45:45;;;;;;;27.33;4.20;;;25.30;2.80;;;;;;4991433;28;20862;-70
2022/06/14 12:48:29;;;;;;;31.67;4.90;;;25.30;2.50;;;;;;4990052;28;20888;-71
2022/06/14 12:51:00;;;;;;;29.40;4.10;;;25.30;2.40;;;;;;4991374;28;20436;-70
2022/06/14 12:53:41;;;;;;;28.20;4.13;;;25.20;2.70;;;;;;4991192;28;20812;-70
2022/06/14 12:56:13;;;;;;;29.60;4.50;;;25.10;2.10;;;;;;4991289;28;20445;-70
2022/06/14 12:58:48;;;;;;;28.53;5.00;;;25.00;2.00;;;;;;4989236;28;20472;-70
2022/06/14 13:01:28;;;;;;;28.47;4.77;;;25.00;2.40;;;;;;4990886;28;20479;-70
2022/06/14 13:04:03;;;;;;;34.03;4.97;;;25.00;1.90;;;;;;4991537;28;20477;-71
2022/06/14 13:06:54;;;;;;;28.30;4.30;;;25.10;4.00;;;;;;4990653;28;20487;-70
2022/06/14 13:09:34;;;;;;;28.60;4.33;;;25.10;3.60;;;;;;4989883;28;20468;-67
2022/06/14 13:12:12;;;;;;;31.17;4.67;;;25.10;3.00;;;;;;4990962;28;20452;-67
2022/06/14 13:14:47;;;;;;;27.27;3.97;;;25.10;3.10;;;;;;4990785;28;21005;-68
2022/06/14 13:17:28;;;;;;;28.40;4.07;;;25.10;2.80;;;;;;4990534;28;20476;-67
2022/06/14 13:20:03;;;;;;;29.30;4.07;;;25.10;1.80;;;;;;4990926;28;20460;-67
2022/06/14 13:22:54;;;;;;;28.23;4.20;;;25.00;1.30;;;;;;4990842;28;20827;-67
2022/06/14 13:25:42;;;;;;;27.30;3.90;;;24.90;2.60;;;;;;4991046;28;20471;-67
2022/06/14 13:28:20;;;;;;;29.43;5.50;;;24.90;2.20;;;;;;4989611;28;21016;-67
2022/06/14 13:30:54;;;;;;;31.33;4.10;;;24.90;1.90;;;;;;4990163;28;20472;-67
2022/06/14 13:33:32;;;;;;;33.50;4.00;;;24.80;1.00;;;;;;4990567;28;20483;-68
2022/06/14 13:36:09;;;;;;;29.70;3.93;;;24.70;1.40;;;;;;4990025;28;20448;-68
2022/06/14 13:38:41;;;;;;;32.17;4.70;;;24.70;2.50;;;;;;4989059;28;20720;-67
2022/06/14 13:41:14;;;;;;;29.47;4.60;;;24.80;3.80;;;;;;4990196;28;20457;-67
2022/06/14 13:43:50;;;;;;;29.40;4.60;;;24.80;3.40;;;;;;4990246;28;20459;-67
2022/06/14 13:46:25;;;;;;;29.20;4.40;;;24.90;3.50;;;;;;4990005;28;20935;-67
2022/06/14 13:49:00;;;;;;;29.80;5.10;;;24.90;3.50;;;;;;4989623;28;20471;-68
2022/06/14 13:51:36;;;;;;;33.10;4.27;;;25.00;4.40;;;;;;4990056;28;20456;-68
2022/06/14 13:54:14;;;;;;;32.03;3.93;;;25.00;3.60;;;;;;4990666;28;20449;-68
2022/06/14 13:56:48;;;;;;;27.70;4.00;;;25.00;3.20;;;;;;4989833;28;20485;-68